createdAt,value
2018-07-06T00:02:18.007Z,18.00
2018-07-06T00:05:05.455Z,18.00
2018-07-06T00:07:52.635Z,18.00
2018-07-06T00:10:40.025Z,18.00
2018-07-06T00:13:27.187Z,18.10
2018-07-06T00:16:14.716Z,18.10
2018-07-06T00:19:02.127Z,18.00
2018-07-06T00:21:49.465Z,18.00
2018-07-06T00:24:36.788Z,18.00
2018-07-06T00:27:24.208Z,18.00
2018-07-06T00:30:11.660Z,18.00
2018-07-06T00:32:59.272Z,18.00
2018-07-06T00:35:46.628Z,18.00
2018-07-06T00:38:34.311Z,18.00
2018-07-06T00:41:21.989Z,18.10
2018-07-06T00:44:09.298Z,18.10
2018-07-06T00:46:56.734Z,18.10
2018-07-06T00:52:25.516Z,18.10
2018-07-06T00:55:13.135Z,18.20
2018-07-06T00:58:00.619Z,18.20
2018-07-06T01:00:48.277Z,18.20
2018-07-06T01:03:35.984Z,18.20
2018-07-06T01:06:23.352Z,18.30
2018-07-06T01:09:10.764Z,18.30
2018-07-06T01:12:02.223Z,18.30
2018-07-06T01:14:49.763Z,18.30
2018-07-06T01:17:37.224Z,18.30
2018-07-06T01:20:25.000Z,18.30
2018-07-06T01:23:12.446Z,18.40
2018-07-06T01:25:59.730Z,18.40
2018-07-06T01:28:47.010Z,18.40
2018-07-06T01:31:34.481Z,18.40
2018-07-06T01:34:21.947Z,18.40
2018-07-06T01:37:09.335Z,18.40
2018-07-06T01:39:56.981Z,18.40
2018-07-06T01:42:44.745Z,18.40
2018-07-06T01:45:32.375Z,18.50
2018-07-06T01:48:19.867Z,18.50
2018-07-06T01:51:07.561Z,18.50
2018-07-06T01:53:54.946Z,18.50
2018-07-06T01:56:42.634Z,18.50
2018-07-06T01:59:29.859Z,18.40
2018-07-06T02:02:17.297Z,18.40
2018-07-06T02:05:04.599Z,18.40
2018-07-06T02:07:52.003Z,18.30
2018-07-06T02:10:39.664Z,18.30
2018-07-06T02:13:27.134Z,18.40
2018-07-06T02:16:14.626Z,18.30
2018-07-06T02:19:02.245Z,18.30
2018-07-06T02:21:49.785Z,18.20
2018-07-06T02:24:37.493Z,18.20
2018-07-06T02:27:24.844Z,18.20
2018-07-06T02:30:12.396Z,18.20
2018-07-06T02:32:59.852Z,18.20
2018-07-06T02:35:47.374Z,18.20
2018-07-06T02:38:34.955Z,18.20
2018-07-06T02:41:22.540Z,18.20
2018-07-06T02:44:09.953Z,18.20
2018-07-06T02:46:57.346Z,18.20
2018-07-06T02:49:44.778Z,18.10
2018-07-06T02:52:32.061Z,18.10
2018-07-06T02:55:19.747Z,18.10
2018-07-06T02:58:07.304Z,18.10
2018-07-06T03:00:54.637Z,18.10
2018-07-06T03:03:42.327Z,18.10
2018-07-06T03:06:29.819Z,18.00
2018-07-06T03:09:17.372Z,18.00
2018-07-06T03:12:04.799Z,18.10
2018-07-06T03:14:52.796Z,18.10
2018-07-06T03:17:40.253Z,18.10
2018-07-06T03:20:27.678Z,18.00
2018-07-06T03:23:15.170Z,18.00
2018-07-06T03:26:02.566Z,18.00
2018-07-06T03:28:50.144Z,18.00
2018-07-06T03:31:37.406Z,17.90
2018-07-06T03:34:24.800Z,17.90
2018-07-06T03:37:12.971Z,17.80
2018-07-06T03:40:00.567Z,17.80
2018-07-06T03:42:48.219Z,17.70
2018-07-06T03:45:35.819Z,17.70
2018-07-06T03:48:27.642Z,17.70
2018-07-06T03:51:15.103Z,17.60
2018-07-06T03:54:02.629Z,17.50
2018-07-06T03:56:50.365Z,17.50
2018-07-06T03:59:37.846Z,17.50
2018-07-06T04:02:25.328Z,17.50
2018-07-06T04:05:13.106Z,17.40
2018-07-06T04:08:00.839Z,17.40
2018-07-06T04:10:48.467Z,17.40
2018-07-06T04:13:35.751Z,17.30
2018-07-06T04:16:23.246Z,17.30
2018-07-06T04:19:11.520Z,17.30
2018-07-06T04:21:59.195Z,17.40
2018-07-06T04:24:46.453Z,17.40
2018-07-06T04:27:34.044Z,17.40
2018-07-06T04:30:21.415Z,17.30
2018-07-06T04:33:08.994Z,17.40
2018-07-06T04:35:56.431Z,17.40
2018-07-06T04:38:43.849Z,17.30
2018-07-06T04:41:31.311Z,17.30
2018-07-06T04:44:19.010Z,17.40
2018-07-06T04:47:06.468Z,17.40
2018-07-06T04:49:53.859Z,17.50
2018-07-06T04:52:41.298Z,17.50
2018-07-06T04:55:28.535Z,17.50
2018-07-06T04:58:16.814Z,17.50
2018-07-06T05:01:04.407Z,17.50
2018-07-06T05:03:52.009Z,17.50
2018-07-06T05:06:39.637Z,17.50
2018-07-06T05:09:27.225Z,17.50
2018-07-06T05:12:15.204Z,17.50
2018-07-06T05:15:02.669Z,17.50
2018-07-06T05:17:50.194Z,17.50
2018-07-06T05:20:37.793Z,17.40
2018-07-06T05:23:25.233Z,17.40
2018-07-06T05:26:12.878Z,17.40
2018-07-06T05:29:00.179Z,17.50
2018-07-06T05:31:47.643Z,17.40
2018-07-06T05:34:35.120Z,17.50
2018-07-06T05:37:22.653Z,17.50
2018-07-06T05:40:10.280Z,17.40
2018-07-06T05:42:57.899Z,17.40
2018-07-06T05:45:45.119Z,17.40
2018-07-06T05:48:32.617Z,17.30
2018-07-06T05:54:01.671Z,17.30
2018-07-06T05:56:49.401Z,17.30
2018-07-06T05:59:36.931Z,17.20
2018-07-06T06:02:24.662Z,17.20
2018-07-06T06:05:12.396Z,17.20
2018-07-06T06:07:47.635Z,17.20
2018-07-06T06:10:18.438Z,17.20
2018-07-06T06:12:49.526Z,17.20
2018-07-06T06:15:20.488Z,17.10
2018-07-06T06:17:51.366Z,17.10
2018-07-06T06:20:22.326Z,17.10
2018-07-06T06:22:53.276Z,17.10
2018-07-06T06:25:24.305Z,17.10
2018-07-06T06:27:55.090Z,17.10
2018-07-06T06:30:26.383Z,17.20
2018-07-06T06:32:57.566Z,17.20
2018-07-06T06:35:28.534Z,17.20
2018-07-06T06:37:59.799Z,17.20
2018-07-06T06:40:30.638Z,17.30
2018-07-06T06:43:01.497Z,17.40
2018-07-06T06:45:32.265Z,17.40
2018-07-06T06:48:03.310Z,17.50
2018-07-06T06:50:34.515Z,17.60
2018-07-06T06:53:05.619Z,17.70
2018-07-06T06:55:36.387Z,17.90
2018-07-06T06:58:07.832Z,17.90
2018-07-06T07:00:39.091Z,18.10
2018-07-06T07:03:10.129Z,18.30
2018-07-06T07:05:40.999Z,18.30
2018-07-06T07:08:11.926Z,18.50
2018-07-06T07:10:42.794Z,18.60
2018-07-06T07:13:13.692Z,18.70
2018-07-06T07:15:44.981Z,18.90
2018-07-06T07:18:16.284Z,19.10
2018-07-06T07:20:47.151Z,19.30
2018-07-06T07:23:17.952Z,19.30
2018-07-06T07:25:48.827Z,19.30
2018-07-06T07:28:19.678Z,19.20
2018-07-06T07:30:50.606Z,19.20
2018-07-06T07:33:21.402Z,19.20
2018-07-06T07:35:52.336Z,19.30
2018-07-06T07:38:23.069Z,19.40
2018-07-06T07:40:53.943Z,19.30
2018-07-06T07:43:24.992Z,19.30
2018-07-06T07:48:26.228Z,19.60
2018-07-06T07:51:08.206Z,19.80
2018-07-06T07:53:49.824Z,19.90
2018-07-06T07:56:20.931Z,20.30
2018-07-06T07:58:51.724Z,20.50
2018-07-06T08:01:22.633Z,20.60
2018-07-06T08:03:53.328Z,20.60
2018-07-06T08:06:24.230Z,20.70
2018-07-06T08:08:55.059Z,20.70
2018-07-06T08:11:25.936Z,20.70
2018-07-06T08:13:56.699Z,20.60
2018-07-06T08:16:27.488Z,20.40
2018-07-06T08:18:58.358Z,20.40
2018-07-06T08:21:29.144Z,20.40
2018-07-06T08:23:59.875Z,20.40
2018-07-06T08:26:30.639Z,20.40
2018-07-06T08:29:01.556Z,20.50
2018-07-06T08:31:32.279Z,20.50
2018-07-06T08:34:13.775Z,20.60
2018-07-06T08:37:55.066Z,20.50
2018-07-06T08:40:26.728Z,20.50
2018-07-06T08:42:59.389Z,20.50
2018-07-06T08:45:30.993Z,20.40
2018-07-06T08:48:02.009Z,20.50
2018-07-06T08:50:32.783Z,20.50
2018-07-06T08:53:03.583Z,20.60
2018-07-06T08:55:35.136Z,20.80
2018-07-06T08:58:06.186Z,20.90
2018-07-06T09:00:37.092Z,20.90
2018-07-06T09:03:07.885Z,21.00
2018-07-06T09:05:38.553Z,21.10
2018-07-06T09:08:09.263Z,21.20
2018-07-06T09:10:40.068Z,21.40
2018-07-06T09:13:10.981Z,21.60
2018-07-06T09:18:11.782Z,21.80
2018-07-06T09:20:42.522Z,21.70
2018-07-06T09:23:13.495Z,21.80
2018-07-06T09:25:44.164Z,21.70
2018-07-06T09:28:15.033Z,21.80
2018-07-06T09:30:45.759Z,21.90
2018-07-06T09:33:16.582Z,22.00
2018-07-06T09:35:47.388Z,22.20
2018-07-06T09:38:18.203Z,22.40
2018-07-06T09:40:49.104Z,22.70
2018-07-06T09:43:19.825Z,23.10
2018-07-06T09:45:50.571Z,23.10
2018-07-06T09:48:21.358Z,23.30
2018-07-06T09:50:52.224Z,23.70
2018-07-06T09:53:22.958Z,24.10
2018-07-06T09:55:53.700Z,24.70
2018-07-06T09:58:24.461Z,25.10
2018-07-06T10:00:59.558Z,25.20
2018-07-06T10:03:30.411Z,25.20
2018-07-06T10:06:01.322Z,25.20
2018-07-06T10:08:32.216Z,25.10
2018-07-06T10:11:03.102Z,25.20
2018-07-06T10:13:33.932Z,25.50
2018-07-06T10:16:04.776Z,26.10
2018-07-06T10:18:35.639Z,26.30
2018-07-06T10:21:06.647Z,26.60
2018-07-06T10:23:37.710Z,26.90
2018-07-06T10:26:08.472Z,27.10
2018-07-06T10:30:55.941Z,27.30
2018-07-06T10:33:26.783Z,27.50
2018-07-06T10:35:57.598Z,27.30
2018-07-06T10:38:28.409Z,27.00
2018-07-06T10:40:59.274Z,26.90
2018-07-06T10:43:30.104Z,26.80
2018-07-06T10:46:00.918Z,27.10
2018-07-06T10:48:31.646Z,27.50
2018-07-06T10:51:02.414Z,27.80
2018-07-06T10:53:33.199Z,28.10
2018-07-06T10:56:04.000Z,28.40
2018-07-06T10:58:34.799Z,28.50
2018-07-06T11:01:05.579Z,28.70
2018-07-06T11:03:36.542Z,29.00
2018-07-06T11:06:07.300Z,29.10
2018-07-06T11:08:38.127Z,29.10
2018-07-06T11:11:08.913Z,28.80
2018-07-06T11:13:39.728Z,28.70
2018-07-06T11:16:10.692Z,28.50
2018-07-06T11:18:41.622Z,27.90
2018-07-06T11:21:12.436Z,27.20
2018-07-06T11:23:43.146Z,26.50
2018-07-06T11:26:13.912Z,26.30
2018-07-06T11:28:44.733Z,26.50
2018-07-06T11:31:15.808Z,26.80
2018-07-06T11:33:46.612Z,27.10
2018-07-06T11:36:17.488Z,27.30
2018-07-06T11:38:48.275Z,27.40
2018-07-06T11:41:19.132Z,27.40
2018-07-06T11:43:50.566Z,27.30
2018-07-06T11:46:21.433Z,27.10
2018-07-06T11:48:52.214Z,26.90
2018-07-06T11:51:23.099Z,26.50
2018-07-06T11:53:53.910Z,26.10
2018-07-06T11:56:24.688Z,25.80
2018-07-06T11:58:55.538Z,25.70
2018-07-06T12:01:26.512Z,25.60
2018-07-06T12:03:57.198Z,25.70
2018-07-06T12:06:27.876Z,25.70
2018-07-06T12:08:58.744Z,25.90
2018-07-06T12:11:29.605Z,26.20
2018-07-06T12:14:00.467Z,26.10
2018-07-06T12:16:31.468Z,25.80
2018-07-06T12:19:02.729Z,25.70
2018-07-06T12:21:33.661Z,25.70
2018-07-06T12:24:04.475Z,25.70
2018-07-06T12:26:35.189Z,25.90
2018-07-06T12:29:05.975Z,26.10
2018-07-06T12:31:36.849Z,26.30
2018-07-06T12:34:07.614Z,26.50
2018-07-06T12:36:38.433Z,26.70
2018-07-06T12:39:09.411Z,26.90
2018-07-06T12:41:40.270Z,26.90
2018-07-06T12:44:11.126Z,26.70
2018-07-06T12:46:41.856Z,26.50
2018-07-06T12:49:12.870Z,26.20
2018-07-06T12:51:43.636Z,26.20
2018-07-06T12:54:14.381Z,26.40
2018-07-06T12:56:45.095Z,26.50
2018-07-06T12:59:15.784Z,26.60
2018-07-06T13:01:46.589Z,26.70
2018-07-06T13:04:17.352Z,26.70
2018-07-06T13:06:48.241Z,26.70
2018-07-06T13:09:18.990Z,26.60
2018-07-06T13:11:49.729Z,26.60
2018-07-06T13:14:20.492Z,26.90
2018-07-06T13:16:51.327Z,27.10
2018-07-06T13:19:22.035Z,27.10
2018-07-06T13:21:52.816Z,27.10
2018-07-06T13:24:23.540Z,27.10
2018-07-06T13:26:54.248Z,27.20
2018-07-06T13:29:25.019Z,27.40
2018-07-06T13:31:55.876Z,27.50
2018-07-06T13:34:26.642Z,27.60
2018-07-06T13:36:57.491Z,27.70
2018-07-06T13:39:28.316Z,27.70
2018-07-06T13:41:58.945Z,27.60
2018-07-06T13:44:29.811Z,27.50
2018-07-06T13:47:00.648Z,27.30
2018-07-06T13:49:31.457Z,27.40
2018-07-06T13:52:02.502Z,27.70
2018-07-06T13:54:33.302Z,28.10
2018-07-06T13:57:04.069Z,28.30
2018-07-06T13:59:34.933Z,28.60
2018-07-06T14:02:05.620Z,28.70
2018-07-06T14:04:36.579Z,28.50
2018-07-06T14:07:07.526Z,28.80
2018-07-06T14:09:38.760Z,29.00
2018-07-06T14:12:09.916Z,29.00
2018-07-06T14:14:40.633Z,28.80
2018-07-06T14:17:11.516Z,28.70
2018-07-06T14:19:42.302Z,28.80
2018-07-06T14:22:13.151Z,28.90
2018-07-06T14:24:43.882Z,28.90
2018-07-06T14:27:14.660Z,28.80
2018-07-06T14:29:45.415Z,28.70
2018-07-06T14:32:16.248Z,28.60
2018-07-06T14:34:46.982Z,28.30
2018-07-06T14:39:47.667Z,28.00
2018-07-06T14:42:18.520Z,27.80
2018-07-06T14:44:49.390Z,27.80
2018-07-06T14:47:20.405Z,27.70
2018-07-06T14:49:51.435Z,27.80
2018-07-06T14:52:22.412Z,28.00
2018-07-06T14:54:53.350Z,28.20
2018-07-06T14:57:24.157Z,28.40
2018-07-06T14:59:55.176Z,28.60
2018-07-06T15:02:25.917Z,28.80
2018-07-06T15:04:56.777Z,29.00
2018-07-06T15:07:27.529Z,29.10
2018-07-06T15:09:58.267Z,29.10
2018-07-06T15:12:29.038Z,29.10
2018-07-06T15:14:59.791Z,28.80
2018-07-06T15:17:30.513Z,28.70
2018-07-06T15:20:01.310Z,28.70
2018-07-06T15:22:32.104Z,28.60
2018-07-06T15:25:02.775Z,28.40
2018-07-06T15:27:33.484Z,28.30
2018-07-06T15:30:04.502Z,28.20
2018-07-06T15:32:35.287Z,28.10
2018-07-06T15:35:06.010Z,28.10
2018-07-06T15:37:36.911Z,28.00
2018-07-06T15:40:07.740Z,28.00
2018-07-06T15:42:38.584Z,27.90
2018-07-06T15:45:09.334Z,27.70
2018-07-06T15:47:40.112Z,27.50
2018-07-06T15:50:10.941Z,27.50
2018-07-06T15:52:41.844Z,27.60
2018-07-06T15:55:12.556Z,27.70
2018-07-06T15:57:43.266Z,27.60
2018-07-06T16:02:44.015Z,27.40
2018-07-06T16:05:15.082Z,27.40
2018-07-06T16:07:45.860Z,27.40
2018-07-06T16:10:16.707Z,27.50
2018-07-06T16:12:47.444Z,27.40
2018-07-06T16:15:18.175Z,27.30
2018-07-06T16:17:48.996Z,27.10
2018-07-06T16:20:19.915Z,26.90
2018-07-06T16:23:08.283Z,26.70
2018-07-06T16:25:39.010Z,26.70
2018-07-06T16:28:09.803Z,26.60
2018-07-06T16:30:40.579Z,26.70
2018-07-06T16:33:11.423Z,26.70
2018-07-06T16:35:42.465Z,26.70
2018-07-06T16:38:13.247Z,26.80
2018-07-06T16:40:44.023Z,27.00
2018-07-06T16:43:14.734Z,27.10
2018-07-06T16:45:45.566Z,27.10
2018-07-06T16:48:16.393Z,27.50
2018-07-06T16:50:47.187Z,28.10
2018-07-06T16:53:17.967Z,29.00
2018-07-06T16:55:48.811Z,30.30
2018-07-06T16:58:19.579Z,32.10
2018-07-06T17:00:50.314Z,32.90
2018-07-06T17:03:21.252Z,32.90
2018-07-06T17:05:51.950Z,32.80
2018-07-06T17:08:22.606Z,31.60
2018-07-06T17:10:53.422Z,31.20
2018-07-06T17:13:24.280Z,31.00
2018-07-06T17:15:55.198Z,31.80
2018-07-06T17:18:26.040Z,32.70
2018-07-06T17:20:56.901Z,33.50
2018-07-06T17:23:27.703Z,34.60
2018-07-06T17:25:58.523Z,34.90
2018-07-06T17:28:29.270Z,36.20
2018-07-06T17:31:00.343Z,37.20
2018-07-06T17:33:31.184Z,37.00
2018-07-06T17:36:02.031Z,36.80
2018-07-06T17:38:32.822Z,37.10
2018-07-06T17:41:03.557Z,36.90
2018-07-06T17:43:34.288Z,36.20
2018-07-06T17:46:05.037Z,36.00
2018-07-06T17:48:35.756Z,36.90
2018-07-06T17:51:07.123Z,38.10
2018-07-06T17:53:38.121Z,38.40
2018-07-06T17:56:08.852Z,39.20
2018-07-06T17:58:39.622Z,39.80
2018-07-06T18:01:10.440Z,39.70
2018-07-06T18:03:41.211Z,39.70
2018-07-06T18:06:12.847Z,39.20
2018-07-06T18:08:43.694Z,38.50
2018-07-06T18:11:14.528Z,38.10
2018-07-06T18:13:46.584Z,38.00
2018-07-06T18:16:17.454Z,38.10
2018-07-06T18:18:48.335Z,38.30
2018-07-06T18:21:19.088Z,38.00
2018-07-06T18:23:50.080Z,37.20
2018-07-06T18:26:20.992Z,36.90
2018-07-06T18:28:51.750Z,36.70
2018-07-06T18:31:22.782Z,36.60
2018-07-06T18:33:53.689Z,36.40
2018-07-06T18:36:24.516Z,35.90
2018-07-06T18:38:55.263Z,35.50
2018-07-06T18:41:26.128Z,35.10
2018-07-06T18:43:56.923Z,34.50
2018-07-06T18:46:27.864Z,33.90
2018-07-06T18:48:58.800Z,33.10
2018-07-06T18:51:29.556Z,31.90
2018-07-06T18:54:00.379Z,30.30
2018-07-06T18:56:31.217Z,29.00
2018-07-06T18:59:01.895Z,27.80
2018-07-06T19:01:32.718Z,27.00
2018-07-06T19:04:04.016Z,26.20
2018-07-06T19:06:34.742Z,25.50
2018-07-06T19:09:06.016Z,25.00
2018-07-06T19:11:36.858Z,24.50
2018-07-06T19:14:07.726Z,24.20
2018-07-06T19:16:38.847Z,23.90
2018-07-06T19:19:09.675Z,23.70
2018-07-06T19:21:40.408Z,23.50
2018-07-06T19:24:11.786Z,23.30
2018-07-06T19:26:42.426Z,23.10
2018-07-06T19:29:13.275Z,22.90
2018-07-06T19:31:44.083Z,22.70
2018-07-06T19:34:14.896Z,22.60
2018-07-06T19:36:45.641Z,22.50
2018-07-06T19:39:16.461Z,22.40
2018-07-06T19:41:47.618Z,22.20
2018-07-06T19:44:18.527Z,22.10
2018-07-06T19:46:49.398Z,22.00
2018-07-06T19:49:20.259Z,21.80
2018-07-06T19:51:51.073Z,21.70
2018-07-06T19:54:21.807Z,21.60
2018-07-06T19:56:52.736Z,21.50
2018-07-06T19:59:23.471Z,21.40
2018-07-06T20:01:54.326Z,21.30
2018-07-06T20:06:55.942Z,21.20
2018-07-06T20:09:26.712Z,21.10
2018-07-06T20:11:57.619Z,21.00
2018-07-06T20:14:28.397Z,20.90
2018-07-06T20:16:59.253Z,20.80
2018-07-06T20:19:30.126Z,20.70
2018-07-06T20:22:00.806Z,20.60
2018-07-06T20:24:31.582Z,20.50
2018-07-06T20:27:02.341Z,20.40
2018-07-06T20:29:33.197Z,20.30
2018-07-06T20:32:03.995Z,20.20
2018-07-06T20:34:34.838Z,20.10
2018-07-06T20:37:05.689Z,20.00
2018-07-06T20:39:36.404Z,19.90
2018-07-06T20:42:07.135Z,19.90
2018-07-06T20:44:37.900Z,19.80
2018-07-06T20:47:08.664Z,19.70
2018-07-06T20:49:39.467Z,19.60
2018-07-06T20:52:10.594Z,19.50
2018-07-06T20:54:41.450Z,19.50
2018-07-06T20:57:12.324Z,19.40
2018-07-06T20:59:43.192Z,19.30
2018-07-06T21:02:13.978Z,19.30
2018-07-06T21:04:45.034Z,19.20
2018-07-06T21:07:15.865Z,19.10
2018-07-06T21:09:46.555Z,19.00
2018-07-06T21:12:17.825Z,19.00
2018-07-06T21:14:48.540Z,19.00
2018-07-06T21:17:19.196Z,19.00
2018-07-06T21:19:49.847Z,19.00
2018-07-06T21:22:20.622Z,19.00
2018-07-06T21:24:51.371Z,18.90
2018-07-06T21:27:22.091Z,18.80
2018-07-06T21:29:52.791Z,18.80
2018-07-06T21:32:23.665Z,18.70
2018-07-06T21:34:54.561Z,18.70
2018-07-06T21:37:25.754Z,18.70
2018-07-06T21:39:56.995Z,18.60
2018-07-06T21:42:28.161Z,18.60
2018-07-06T21:44:59.183Z,18.60
2018-07-06T21:47:30.122Z,18.50
2018-07-06T21:50:01.088Z,18.50
2018-07-06T21:52:31.902Z,18.50
2018-07-06T21:55:02.801Z,18.40
2018-07-06T21:57:33.568Z,18.30
2018-07-06T22:00:04.503Z,18.30
2018-07-06T22:02:35.659Z,18.30
2018-07-06T22:05:06.570Z,18.30
2018-07-06T22:07:37.312Z,18.20
2018-07-06T22:10:08.095Z,18.20
2018-07-06T22:12:39.021Z,18.00
2018-07-06T22:15:09.877Z,17.80
2018-07-06T22:17:40.712Z,17.70
2018-07-06T22:20:11.514Z,17.70
2018-07-06T22:22:42.373Z,17.60
2018-07-06T22:25:13.117Z,17.50
2018-07-06T22:27:44.083Z,17.50
2018-07-06T22:30:15.079Z,17.50
2018-07-06T22:32:46.041Z,17.40
2018-07-06T22:35:17.261Z,17.30
2018-07-06T22:37:48.032Z,17.20
2018-07-06T22:40:18.711Z,17.10
2018-07-06T22:42:49.499Z,17.10
2018-07-06T22:45:20.581Z,17.10
2018-07-06T22:47:51.519Z,17.20
2018-07-06T22:50:22.279Z,17.10
2018-07-06T22:52:53.580Z,17.10
2018-07-06T22:55:24.550Z,17.00
2018-07-06T22:57:55.377Z,17.00
2018-07-06T23:00:26.163Z,17.10
2018-07-06T23:03:02.161Z,17.10
2018-07-06T23:05:32.918Z,17.20
2018-07-06T23:08:04.204Z,17.10
2018-07-06T23:10:35.032Z,17.00
2018-07-06T23:13:06.092Z,17.00
2018-07-06T23:15:37.123Z,16.90
2018-07-06T23:18:08.434Z,16.80
2018-07-06T23:20:39.156Z,16.80
2018-07-06T23:23:13.013Z,16.80
2018-07-06T23:25:45.793Z,16.70
2018-07-06T23:28:16.805Z,16.70
2018-07-06T23:30:47.862Z,16.60
2018-07-06T23:33:18.975Z,16.60
2018-07-06T23:35:49.810Z,16.60
2018-07-06T23:38:20.615Z,16.70
2018-07-06T23:40:51.890Z,16.70
2018-07-06T23:43:22.816Z,16.70
2018-07-06T23:45:53.698Z,16.80
2018-07-06T23:48:24.543Z,16.80
2018-07-06T23:50:55.449Z,16.70
2018-07-06T23:53:26.365Z,16.70
2018-07-06T23:55:57.352Z,16.60
2018-07-06T23:58:28.458Z,16.60
